Time;durP1;ratioP1;P1;durP2;ratioP2;P2;SDS_P1;SDS_P2;PMS_P1;PMS_P2;Temp;Humidity;BMP_temperature;BMP_pressure;BME280_temperature;BME280_humidity;BME280_pressure;Samples;Min_cycle;Max_cycle;Signal;HPM_P1;HPM_P2
2023/01/26 00:01:34;;;;;;;23.15;12.55;;;-0.90;99.90;;;;;;5097905;28;20039;-82
2023/01/26 00:04:00;;;;;;;23.02;12.70;;;-0.90;99.90;;;;;;5097796;28;20370;-83
2023/01/26 00:06:25;;;;;;;23.35;14.68;;;-0.90;99.90;;;;;;5097782;28;20500;-81
2023/01/26 00:08:54;;;;;;;27.88;14.75;;;-0.90;99.90;;;;;;5116063;28;20055;-81
2023/01/26 00:11:31;;;;;;;26.55;14.50;;;-0.90;99.90;;;;;;5097769;28;20019;-81
2023/01/26 00:13:59;;;;;;;24.85;14.68;;;-1.00;99.90;;;;;;5097680;28;20497;-79
2023/01/26 00:16:25;;;;;;;25.67;13.85;;;-1.00;99.90;;;;;;5116035;28;20020;-81
2023/01/26 00:18:51;;;;;;;25.75;13.80;;;-1.00;99.90;;;;;;5108750;28;20047;-80
2023/01/26 00:21:21;;;;;;;22.40;13.95;;;-1.00;99.90;;;;;;5077131;28;20501;-81
2023/01/26 00:23:48;;;;;;;25.08;12.60;;;-1.00;99.90;;;;;;5076635;28;20020;-83
2023/01/26 00:26:16;;;;;;;26.73;15.13;;;-1.00;99.90;;;;;;5077230;28;20027;-83
2023/01/26 00:28:42;;;;;;;28.92;13.98;;;-1.00;99.90;;;;;;5095039;28;20028;-82
2023/01/26 00:31:17;;;;;;;23.95;13.30;;;-1.00;99.90;;;;;;5076927;28;20370;-82
2023/01/26 00:33:42;;;;;;;25.75;13.52;;;-0.90;99.90;;;;;;5076926;28;20016;-82
2023/01/26 00:36:08;;;;;;;21.10;12.65;;;-1.00;99.90;;;;;;5095160;28;20099;-82
2023/01/26 00:38:34;;;;;;;22.23;12.85;;;-1.00;99.90;;;;;;5095009;28;20016;-82
2023/01/26 00:41:00;;;;;;;26.40;13.32;;;-1.00;99.90;;;;;;5076842;28;20032;-81
2023/01/26 00:43:25;;;;;;;24.00;14.00;;;-1.00;99.90;;;;;;5094850;28;20016;-82
2023/01/26 00:45:51;;;;;;;29.13;15.27;;;-1.10;99.90;;;;;;5095107;28;20028;-83
2023/01/26 00:48:16;;;;;;;24.95;14.60;;;-1.00;99.90;;;;;;5076660;28;20035;-83
2023/01/26 00:50:42;;;;;;;24.98;14.55;;;-1.00;99.90;;;;;;5094692;28;20031;-83
2023/01/26 00:53:09;;;;;;;26.17;14.18;;;-0.90;99.90;;;;;;5076584;28;20020;-81
2023/01/26 00:55:34;;;;;;;26.58;14.45;;;-0.90;99.90;;;;;;5094826;28;20024;-81
2023/01/26 00:58:02;;;;;;;22.85;12.25;;;-0.90;99.90;;;;;;5076505;28;20016;-80
2023/01/26 01:00:28;;;;;;;23.55;12.38;;;-0.90;99.90;;;;;;5094645;28;20378;-81
2023/01/26 01:02:55;;;;;;;20.88;12.30;;;-0.90;99.90;;;;;;5076365;28;20040;-82
2023/01/26 01:05:21;;;;;;;26.08;12.30;;;-1.00;99.90;;;;;;5094507;28;20027;-82
2023/01/26 01:07:47;;;;;;;26.83;12.45;;;-1.10;99.90;;;;;;5076380;28;20043;-82
2023/01/26 01:10:13;;;;;;;22.58;12.18;;;-1.10;99.90;;;;;;5076317;28;20032;-82
2023/01/26 01:12:38;;;;;;;23.10;13.02;;;-1.10;99.90;;;;;;5076230;28;20028;-82
2023/01/26 01:15:05;;;;;;;25.92;12.70;;;-1.10;99.90;;;;;;5094438;28;20028;-80
2023/01/26 01:17:30;;;;;;;23.27;12.43;;;-1.10;99.90;;;;;;5094351;28;20087;-81
2023/01/26 01:19:56;;;;;;;27.45;14.90;;;-1.10;99.90;;;;;;5094313;28;20524;-80
2023/01/26 01:22:21;;;;;;;26.92;12.45;;;-1.10;99.90;;;;;;5076001;28;20141;-80
2023/01/26 01:24:47;;;;;;;23.65;12.55;;;-1.10;99.90;;;;;;5094124;28;20032;-80
2023/01/26 01:27:13;;;;;;;27.92;14.73;;;-1.10;99.90;;;;;;5076001;28;20089;-80
2023/01/26 01:29:38;;;;;;;32.20;14.98;;;-1.00;99.90;;;;;;5094029;28;20498;-80
2023/01/26 01:32:04;;;;;;;26.50;15.40;;;-1.00;99.90;;;;;;5094120;28;20024;-80
2023/01/26 01:34:29;;;;;;;30.50;15.70;;;-1.00;99.90;;;;;;5075539;28;20020;-80
2023/01/26 01:36:55;;;;;;;27.75;15.70;;;-1.00;99.90;;;;;;5093986;28;20020;-81
2023/01/26 01:39:20;;;;;;;31.35;16.70;;;-0.90;99.90;;;;;;5075750;28;20457;-80
2023/01/26 01:41:46;;;;;;;28.80;15.25;;;-0.90;99.90;;;;;;5075683;28;20508;-80
2023/01/26 01:44:13;;;;;;;29.08;13.55;;;-0.90;99.90;;;;;;5075976;28;20026;-81
2023/01/26 01:46:44;;;;;;;22.13;12.60;;;-0.90;99.90;;;;;;5093708;28;20031;-82
2023/01/26 01:49:09;;;;;;;26.17;14.18;;;-0.90;99.90;;;;;;5093804;28;20071;-82
2023/01/26 01:52:08;;;;;;;21.83;12.05;;;-0.90;99.90;;;;;;5093745;28;20108;-80
2023/01/26 01:54:44;;;;;;;24.25;13.23;;;-0.90;99.90;;;;;;5071355;28;20375;-81
2023/01/26 01:57:26;;;;;;;24.65;12.30;;;-0.90;99.90;;;;;;5093562;28;20020;-80
2023/01/26 02:00:05;;;;;;;19.70;11.57;;;-0.90;99.90;;;;;;5093614;28;20448;-80
2023/01/26 02:02:31;;;;;;;19.42;11.85;;;-0.90;99.90;;;;;;5093395;28;20115;-80
2023/01/26 02:05:03;;;;;;;25.70;14.30;;;-1.00;99.90;;;;;;5093700;28;20067;-82
2023/01/26 02:07:31;;;;;;;30.02;17.23;;;-1.00;99.90;;;;;;5075313;28;20073;-81
2023/01/26 02:12:43;;;;;;;25.75;13.32;;;-1.00;99.90;;;;;;5094094;28;20077;-82
2023/01/26 02:15:09;;;;;;;26.10;14.13;;;-1.00;99.90;;;;;;5075321;28;20448;-82
2023/01/26 02:17:35;;;;;;;24.98;15.07;;;-1.10;99.90;;;;;;5093318;28;20024;-81
2023/01/26 02:20:28;;;;;;;23.17;13.00;;;-1.00;99.90;;;;;;5075109;28;20059;-82
2023/01/26 02:23:08;;;;;;;27.80;14.85;;;-1.00;99.90;;;;;;5075249;28;20451;-80
2023/01/26 02:25:50;;;;;;;29.48;15.00;;;-1.00;99.90;;;;;;5075220;28;20028;-81
2023/01/26 02:28:17;;;;;;;26.20;14.27;;;-0.90;99.90;;;;;;5065594;28;20128;-81
2023/01/26 02:30:44;;;;;;;26.60;14.80;;;-0.90;99.90;;;;;;5034885;28;20024;-80
2023/01/26 02:33:18;;;;;;;25.17;13.35;;;-0.90;99.90;;;;;;5035158;28;20045;-80
2023/01/26 02:35:43;;;;;;;26.05;13.98;;;-0.90;99.90;;;;;;5052882;28;20029;-79
2023/01/26 02:38:09;;;;;;;25.65;14.88;;;-0.90;99.90;;;;;;5053004;28;20367;-81
2023/01/26 02:40:53;;;;;;;25.38;13.95;;;-0.90;99.90;;;;;;5035171;28;20113;-81
2023/01/26 02:43:20;;;;;;;25.40;14.10;;;-0.90;99.90;;;;;;5053031;28;20049;-81
2023/01/26 02:45:45;;;;;;;26.85;13.07;;;-0.90;99.90;;;;;;5053386;28;20096;-81
2023/01/26 02:48:11;;;;;;;29.10;15.73;;;-0.90;99.90;;;;;;5038998;28;20121;-81
2023/01/26 02:50:36;;;;;;;29.08;14.65;;;-1.00;99.90;;;;;;5039032;28;20115;-81
2023/01/26 02:53:02;;;;;;;25.92;14.55;;;-1.00;99.90;;;;;;5039034;28;20470;-81
2023/01/26 02:55:28;;;;;;;26.45;13.60;;;-1.00;99.90;;;;;;5038868;28;20067;-81
2023/01/26 02:57:55;;;;;;;22.40;13.27;;;-1.00;99.90;;;;;;5038701;28;20024;-82
2023/01/26 03:00:41;;;;;;;31.15;14.57;;;-1.00;99.90;;;;;;5056651;28;20055;-82
2023/01/26 03:03:12;;;;;;;26.17;14.35;;;-1.00;99.90;;;;;;5038738;28;20043;-81
2023/01/26 03:05:38;;;;;;;26.23;14.73;;;-1.00;99.90;;;;;;5056711;28;20021;-83
2023/01/26 03:08:05;;;;;;;33.80;16.63;;;-1.00;99.90;;;;;;5038744;28;20094;-83
2023/01/26 03:10:30;;;;;;;31.33;14.30;;;-1.00;99.90;;;;;;5038602;28;20060;-82
2023/01/26 03:12:56;;;;;;;24.45;14.07;;;-1.00;99.90;;;;;;5038456;28;20411;-81
2023/01/26 03:15:41;;;;;;;24.15;14.45;;;-1.00;99.90;;;;;;5038528;28;20059;-84
2023/01/26 03:29:12;;;;;;;22.85;13.80;;;-1.00;99.90;;;;;;5055006;28;20036;-82
2023/01/26 03:31:38;;;;;;;26.40;14.85;;;-1.00;99.90;;;;;;5053701;28;20025;-81
2023/01/26 03:34:04;;;;;;;25.00;14.65;;;-1.10;99.90;;;;;;5054809;28;20029;-81
2023/01/26 03:36:29;;;;;;;29.20;14.98;;;-1.10;99.90;;;;;;5053520;28;20375;-83
2023/01/26 03:38:55;;;;;;;35.03;18.63;;;-1.00;99.90;;;;;;5053571;28;20029;-82
2023/01/26 03:57:46;;;;;;;38.22;19.52;;;-1.20;99.90;;;;;;5054495;28;20509;-81
2023/01/26 04:00:13;;;;;;;31.95;16.77;;;-1.10;99.90;;;;;;5053197;28;20075;-80
2023/01/26 04:08:23;;;;;;;23.10;12.95;;;-1.20;99.90;;;;;;5054708;28;20040;-83
2023/01/26 04:10:51;;;;;;;24.75;14.45;;;-1.20;99.90;;;;;;5054425;28;20530;-83
2023/01/26 04:21:32;;;;;;;28.92;14.60;;;-1.30;99.90;;;;;;5055343;28;20098;-83
2023/01/26 04:23:59;;;;;;;30.23;16.95;;;-1.30;99.90;;;;;;5053774;28;20025;-83
2023/01/26 04:26:35;;;;;;;20.33;12.98;;;-1.30;99.90;;;;;;5053785;28;20108;-79
2023/01/26 04:29:07;;;;;;;21.90;12.55;;;-1.30;99.90;;;;;;5054156;28;20127;-81
2023/01/26 04:31:33;;;;;;;27.67;14.57;;;-1.40;99.90;;;;;;5055084;28;20025;-81
2023/01/26 04:33:59;;;;;;;29.83;14.15;;;-1.40;99.90;;;;;;5053782;28;20040;-80
2023/01/26 04:36:25;;;;;;;25.90;15.15;;;-1.40;99.90;;;;;;5053528;28;20376;-79
2023/01/26 04:38:51;;;;;;;27.05;14.32;;;-1.40;99.90;;;;;;5053687;28;20100;-79
2023/01/26 04:41:17;;;;;;;23.85;13.32;;;-1.30;99.90;;;;;;5053398;28;20032;-80
2023/01/26 04:43:42;;;;;;;26.77;14.52;;;-1.30;99.90;;;;;;5054644;28;20033;-81
2023/01/26 04:46:08;;;;;;;36.20;16.00;;;-1.30;99.90;;;;;;5053306;28;20360;-84
2023/01/26 04:48:34;;;;;;;26.38;15.52;;;-1.30;99.90;;;;;;5053725;28;20048;-83
2023/01/26 04:51:03;;;;;;;26.73;14.85;;;-1.30;99.90;;;;;;5053714;28;20052;-83
2023/01/26 04:53:29;;;;;;;29.55;15.80;;;-1.30;99.90;;;;;;5054628;28;20071;-80
2023/01/26 04:55:54;;;;;;;29.02;14.82;;;-1.30;99.90;;;;;;5054409;28;20032;-80
2023/01/26 04:58:20;;;;;;;26.30;13.18;;;-1.30;99.90;;;;;;5054455;28;20048;-80
2023/01/26 05:00:54;;;;;;;26.48;15.77;;;-1.20;99.90;;;;;;5053091;28;20025;-82
2023/01/26 05:03:20;;;;;;;26.85;13.93;;;-1.20;99.90;;;;;;5086574;28;20025;-80
2023/01/26 05:05:51;;;;;;;26.30;13.90;;;-1.30;99.90;;;;;;5086590;28;20029;-83
2023/01/26 05:08:18;;;;;;;25.27;13.88;;;-1.30;99.90;;;;;;5053042;28;20474;-81
2023/01/26 05:10:44;;;;;;;21.05;12.93;;;-1.20;99.90;;;;;;5054263;28;20067;-82
2023/01/26 05:13:10;;;;;;;28.35;14.00;;;-1.20;99.90;;;;;;5054204;28;20437;-83
2023/01/26 05:15:35;;;;;;;23.38;13.10;;;-1.20;99.90;;;;;;5054451;28;20025;-82
2023/01/26 05:18:01;;;;;;;21.75;12.40;;;-1.20;99.90;;;;;;5070285;28;20082;-81
2023/01/26 05:20:27;;;;;;;25.35;13.63;;;-1.20;99.90;;;;;;5094121;28;20116;-80
2023/01/26 05:22:53;;;;;;;27.48;14.70;;;-1.20;99.90;;;;;;5075901;28;20036;-81
2023/01/26 05:25:19;;;;;;;26.40;14.57;;;-1.30;99.90;;;;;;5075955;28;20016;-81
2023/01/26 05:27:44;;;;;;;29.05;14.85;;;-1.20;99.90;;;;;;5094244;28;20028;-79
2023/01/26 05:30:10;;;;;;;30.15;14.82;;;-1.20;99.90;;;;;;5075802;28;20016;-79
2023/01/26 05:32:36;;;;;;;25.15;14.27;;;-1.20;99.90;;;;;;5075796;28;20076;-79
2023/01/26 05:35:04;;;;;;;26.92;13.07;;;-1.20;99.90;;;;;;5094044;28;20461;-81
2023/01/26 05:37:30;;;;;;;25.38;14.02;;;-1.30;99.90;;;;;;5075788;28;20366;-81
2023/01/26 05:39:55;;;;;;;26.85;14.65;;;-1.30;99.90;;;;;;5093760;28;20050;-79
2023/01/26 05:42:22;;;;;;;24.45;13.38;;;-1.30;99.90;;;;;;5093619;28;20031;-81
2023/01/26 05:44:48;;;;;;;24.10;14.05;;;-1.20;99.90;;;;;;5075410;28;20452;-81
2023/01/26 05:47:13;;;;;;;27.85;14.07;;;-1.20;99.90;;;;;;5075562;28;20055;-79
2023/01/26 05:49:42;;;;;;;30.52;15.05;;;-1.20;99.90;;;;;;5093694;28;20473;-81
2023/01/26 05:52:09;;;;;;;30.38;14.75;;;-1.20;99.90;;;;;;5075197;28;20051;-81
2023/01/26 05:54:35;;;;;;;24.17;13.73;;;-1.10;99.90;;;;;;5093663;28;20024;-81
2023/01/26 05:57:01;;;;;;;25.67;14.18;;;-1.20;99.90;;;;;;5093671;28;20023;-81
2023/01/26 05:59:27;;;;;;;26.27;15.00;;;-1.20;99.90;;;;;;5075436;28;20131;-82
2023/01/26 06:01:53;;;;;;;28.33;15.15;;;-1.20;99.90;;;;;;5075341;28;20489;-82
2023/01/26 06:04:18;;;;;;;23.42;14.30;;;-1.20;99.90;;;;;;5075315;28;20020;-83
2023/01/26 06:06:44;;;;;;;26.83;15.40;;;-1.20;99.90;;;;;;5075324;28;20074;-83
2023/01/26 06:09:09;;;;;;;30.95;16.85;;;-1.20;99.90;;;;;;5075555;28;20020;-84
2023/01/26 06:11:35;;;;;;;30.50;15.45;;;-1.20;99.90;;;;;;5093727;28;20017;-82
2023/01/26 06:14:01;;;;;;;26.92;16.15;;;-1.20;99.90;;;;;;5093748;28;20465;-84
2023/01/26 06:16:26;;;;;;;26.42;16.45;;;-1.20;99.90;;;;;;5074984;28;20119;-83
2023/01/26 06:18:52;;;;;;;28.92;16.00;;;-1.10;99.90;;;;;;5073866;28;20059;-83
2023/01/26 06:21:17;;;;;;;27.63;14.27;;;-1.10;99.90;;;;;;5074123;28;20081;-82
2023/01/26 06:23:43;;;;;;;29.38;17.42;;;-1.10;99.90;;;;;;5092904;28;20031;-83
2023/01/26 06:26:09;;;;;;;26.15;13.77;;;-1.10;99.90;;;;;;5095998;28;20036;-83
2023/01/26 06:28:35;;;;;;;29.45;15.23;;;-1.10;99.90;;;;;;5080000;28;20028;-84
2023/01/26 06:31:02;;;;;;;29.80;14.68;;;-1.20;99.90;;;;;;5072373;28;20032;-85
2023/01/26 06:33:30;;;;;;;31.90;16.63;;;-1.20;99.90;;;;;;5073744;28;20028;-84
2023/01/26 06:35:56;;;;;;;34.35;16.67;;;-1.20;99.90;;;;;;5072817;28;20073;-84
2023/01/26 06:38:21;;;;;;;27.35;15.18;;;-1.10;99.90;;;;;;5090062;28;20103;-83
2023/01/26 06:40:47;;;;;;;28.85;16.42;;;-1.10;99.90;;;;;;5090199;28;20116;-84
2023/01/26 06:43:12;;;;;;;25.83;13.88;;;-1.10;99.90;;;;;;5071558;28;20036;-83
2023/01/26 06:45:38;;;;;;;25.60;15.48;;;-1.00;99.90;;;;;;5089686;28;20035;-85
2023/01/26 06:48:03;;;;;;;32.05;15.60;;;-1.10;99.90;;;;;;5069352;28;20078;-83
2023/01/26 06:50:34;;;;;;;31.85;15.10;;;-1.10;99.90;;;;;;5051145;28;20028;-83
2023/01/26 06:53:22;;;;;;;27.80;15.10;;;-1.20;99.90;;;;;;5082492;28;20020;-83
2023/01/26 06:55:48;;;;;;;30.23;14.45;;;-1.20;99.90;;;;;;5069928;28;20477;-83
2023/01/26 06:58:14;;;;;;;30.92;15.65;;;-1.30;99.90;;;;;;5070481;28;20020;-83
2023/01/26 07:00:40;;;;;;;30.15;15.13;;;-1.40;99.90;;;;;;5088392;28;20284;-83
2023/01/26 07:03:05;;;;;;;29.70;15.13;;;-1.40;99.90;;;;;;5088485;28;20068;-84
2023/01/26 07:05:31;;;;;;;28.70;13.75;;;-1.40;99.90;;;;;;5070672;28;20028;-83
2023/01/26 07:08:01;;;;;;;31.10;16.40;;;-1.50;99.90;;;;;;5072011;28;20059;-83
2023/01/26 07:10:26;;;;;;;28.95;15.65;;;-1.40;99.90;;;;;;5072678;28;20020;-83
2023/01/26 07:12:52;;;;;;;34.20;15.90;;;-1.40;99.90;;;;;;5072484;28;20173;-83
2023/01/26 07:15:17;;;;;;;34.72;16.25;;;-1.40;99.90;;;;;;5090777;28;20016;-83
2023/01/26 07:17:43;;;;;;;32.22;15.85;;;-1.40;99.90;;;;;;5072576;28;20035;-83
2023/01/26 07:20:09;;;;;;;39.22;18.50;;;-1.40;99.90;;;;;;5090882;28;20048;-83
2023/01/26 07:22:35;;;;;;;31.83;16.88;;;-1.40;99.90;;;;;;5072554;28;20040;-83
2023/01/26 07:25:00;;;;;;;34.88;15.73;;;-1.40;99.90;;;;;;5074542;28;20020;-83
2023/01/26 07:27:26;;;;;;;35.58;17.65;;;-1.40;99.90;;;;;;5074387;28;20431;-83
2023/01/26 07:29:51;;;;;;;38.10;19.70;;;-1.40;99.90;;;;;;5092599;28;20032;-83
2023/01/26 07:32:17;;;;;;;36.17;19.50;;;-1.40;99.90;;;;;;5093547;28;20020;-83
2023/01/26 07:34:43;;;;;;;39.20;18.98;;;-1.40;99.90;;;;;;5096287;28;20422;-83
2023/01/26 07:37:08;;;;;;;32.58;19.23;;;-1.40;99.90;;;;;;5077930;28;20031;-84
2023/01/26 07:39:34;;;;;;;39.03;19.42;;;-1.30;99.90;;;;;;5096069;28;20031;-83
2023/01/26 07:41:59;;;;;;;45.88;18.65;;;-1.30;99.90;;;;;;5095888;28;20027;-83
2023/01/26 07:44:25;;;;;;;39.88;20.27;;;-1.30;99.90;;;;;;5077799;28;20035;-83
2023/01/26 07:46:52;;;;;;;41.22;20.02;;;-1.30;99.90;;;;;;5077697;28;20016;-83
2023/01/26 07:49:17;;;;;;;40.95;18.17;;;-1.30;99.90;;;;;;5077633;28;20031;-83
2023/01/26 07:51:43;;;;;;;46.08;19.08;;;-1.30;99.90;;;;;;5077599;28;20016;-83
2023/01/26 07:54:11;;;;;;;43.30;20.25;;;-1.30;99.90;;;;;;5095751;28;20104;-83
2023/01/26 07:56:37;;;;;;;50.33;21.88;;;-1.30;99.90;;;;;;5077601;28;20024;-84
2023/01/26 07:59:02;;;;;;;39.53;19.58;;;-1.30;99.90;;;;;;5077257;28;20024;-83
2023/01/26 08:01:28;;;;;;;40.50;19.08;;;-1.30;99.90;;;;;;5077633;28;20028;-83
2023/01/26 08:03:54;;;;;;;41.55;19.42;;;-1.30;99.90;;;;;;5095440;28;20103;-84
2023/01/26 08:06:20;;;;;;;43.65;20.35;;;-1.30;99.90;;;;;;5094423;28;20549;-83
2023/01/26 08:08:52;;;;;;;41.83;18.17;;;-1.30;99.90;;;;;;5095226;28;20020;-83
2023/01/26 08:11:21;;;;;;;41.25;17.55;;;-1.20;99.90;;;;;;5077449;28;20035;-83
2023/01/26 08:13:46;;;;;;;37.13;18.90;;;-1.20;99.90;;;;;;5095140;28;20031;-83
2023/01/26 08:16:13;;;;;;;42.67;20.63;;;-1.10;99.90;;;;;;5095350;28;20020;-83
2023/01/26 08:18:40;;;;;;;38.53;18.70;;;-1.10;99.90;;;;;;5076823;28;20123;-83
2023/01/26 08:21:05;;;;;;;37.60;19.85;;;-1.10;99.90;;;;;;5095344;28;20024;-84
2023/01/26 08:23:31;;;;;;;34.58;17.45;;;-1.10;99.90;;;;;;5076826;28;20034;-83
2023/01/26 08:26:01;;;;;;;37.60;18.17;;;-1.10;99.90;;;;;;5095288;28;20081;-84
2023/01/26 08:28:28;;;;;;;33.95;16.98;;;-1.10;99.90;;;;;;5076533;28;20024;-84
2023/01/26 08:30:53;;;;;;;37.15;19.35;;;-1.10;99.90;;;;;;5085753;28;20074;-83
2023/01/26 08:33:19;;;;;;;37.33;19.63;;;-1.10;99.90;;;;;;5056969;28;20029;-84
2023/01/26 08:35:45;;;;;;;29.70;17.30;;;-1.10;99.90;;;;;;5074603;28;20059;-83
2023/01/26 08:38:10;;;;;;;38.80;19.08;;;-1.10;99.90;;;;;;5056697;28;20032;-83
2023/01/26 08:40:36;;;;;;;37.97;19.38;;;-1.10;99.90;;;;;;5056822;28;20497;-83
2023/01/26 08:43:02;;;;;;;37.92;18.13;;;-1.00;99.90;;;;;;5074311;28;20111;-83
2023/01/26 08:45:28;;;;;;;45.08;20.20;;;-1.00;99.90;;;;;;5074158;28;20020;-83
2023/01/26 08:47:54;;;;;;;38.20;16.55;;;-1.10;99.90;;;;;;5056666;28;20024;-83
2023/01/26 08:50:20;;;;;;;33.83;17.33;;;-1.10;99.90;;;;;;5074321;28;20047;-83
2023/01/26 08:52:46;;;;;;;44.42;18.83;;;-1.10;99.90;;;;;;5056622;28;20556;-84
2023/01/26 08:55:12;;;;;;;33.00;18.85;;;-1.10;99.90;;;;;;5074656;28;20067;-83
2023/01/26 08:57:38;;;;;;;37.53;18.73;;;-1.00;99.90;;;;;;5056821;28;20063;-83
2023/01/26 09:00:04;;;;;;;37.97;18.35;;;-1.00;99.90;;;;;;5074510;28;20017;-83
2023/01/26 09:02:29;;;;;;;35.75;17.30;;;-1.00;99.90;;;;;;5074290;28;20432;-84
2023/01/26 09:04:55;;;;;;;34.60;16.60;;;-1.00;99.90;;;;;;5074418;28;20044;-83
2023/01/26 09:07:20;;;;;;;50.28;24.85;;;-1.00;99.90;;;;;;5056572;28;20021;-83
2023/01/26 09:09:46;;;;;;;105.30;50.58;;;-1.00;99.90;;;;;;5074420;28;20104;-83
2023/01/26 09:12:11;;;;;;;50.97;30.58;;;-1.00;99.90;;;;;;5056380;28;20116;-83
2023/01/26 09:14:37;;;;;;;41.85;25.35;;;-1.00;99.90;;;;;;5074300;28;20408;-83
2023/01/26 09:17:02;;;;;;;38.78;20.02;;;-0.90;99.90;;;;;;5056426;28;20024;-83
2023/01/26 09:19:28;;;;;;;36.50;19.50;;;-0.90;99.90;;;;;;5056183;28;20053;-84
2023/01/26 09:21:54;;;;;;;49.00;24.17;;;-0.90;99.90;;;;;;5056232;28;20115;-83
2023/01/26 09:24:22;;;;;;;45.22;23.77;;;-0.90;99.90;;;;;;5074110;28;20028;-83
2023/01/26 09:26:48;;;;;;;39.90;20.70;;;-0.90;99.90;;;;;;5074148;28;20040;-83
2023/01/26 09:29:15;;;;;;;40.55;24.65;;;-0.90;99.90;;;;;;5056121;28;20028;-84
2023/01/26 09:31:40;;;;;;;49.22;27.52;;;-0.90;99.90;;;;;;5055172;28;20486;-83
2023/01/26 09:34:06;;;;;;;44.15;24.92;;;-0.80;99.90;;;;;;5055884;28;20035;-83
2023/01/26 09:36:32;;;;;;;41.28;22.50;;;-0.80;99.90;;;;;;5073953;28;20561;-84
2023/01/26 09:38:58;;;;;;;43.13;23.83;;;-0.80;99.90;;;;;;5073796;28;20032;-83
2023/01/26 09:41:26;;;;;;;42.72;25.85;;;-0.80;99.90;;;;;;5055661;28;20037;-83
2023/01/26 09:44:01;;;;;;;44.22;24.60;;;-0.70;99.90;;;;;;5055906;28;20029;-83
2023/01/26 09:46:31;;;;;;;39.67;22.30;;;-0.70;99.90;;;;;;5055930;28;20056;-84
2023/01/26 09:49:04;;;;;;;42.03;22.50;;;-0.70;99.90;;;;;;5055825;28;20028;-84
2023/01/26 09:51:37;;;;;;;43.47;25.42;;;-0.60;99.90;;;;;;5055790;28;20359;-84
2023/01/26 09:54:12;;;;;;;49.40;27.52;;;-0.60;99.90;;;;;;5055605;28;20020;-84
2023/01/26 09:56:38;;;;;;;39.83;20.25;;;-0.60;99.90;;;;;;5073462;28;20056;-84
2023/01/26 09:59:20;;;;;;;45.90;25.60;;;-0.60;99.90;;;;;;5073548;28;20043;-83
2023/01/26 10:02:01;;;;;;;37.28;19.65;;;-0.60;99.90;;;;;;5073608;28;20486;-83
2023/01/26 10:04:38;;;;;;;42.47;21.80;;;-0.60;99.90;;;;;;5073751;28;20032;-84
2023/01/26 10:07:12;;;;;;;44.38;20.92;;;-0.60;99.90;;;;;;5055588;28;20016;-83
2023/01/26 10:09:40;;;;;;;47.70;26.05;;;-0.50;99.90;;;;;;5073595;28;20027;-84
2023/01/26 10:12:29;;;;;;;42.15;21.30;;;-0.50;99.90;;;;;;5055560;28;20032;-84
2023/01/26 10:15:01;;;;;;;53.10;24.42;;;-0.50;99.90;;;;;;5055432;28;20032;-83
2023/01/26 10:17:32;;;;;;;54.55;24.77;;;-0.40;99.90;;;;;;5055479;28;20029;-83
2023/01/26 10:20:19;;;;;;;38.65;19.15;;;-0.40;99.90;;;;;;5071416;28;20075;-84
2023/01/26 10:22:49;;;;;;;60.10;33.40;;;-0.40;99.90;;;;;;5092078;28;20036;-84
2023/01/26 10:25:36;;;;;;;48.50;27.98;;;-0.30;99.90;;;;;;5093556;28;20149;-84
2023/01/26 10:28:19;;;;;;;41.65;22.27;;;-0.40;99.90;;;;;;5093474;28;20032;-83
2023/01/26 10:30:47;;;;;;;57.20;31.55;;;-0.30;99.90;;;;;;5092283;28;20035;-84
2023/01/26 10:33:33;;;;;;;42.58;22.05;;;-0.40;99.90;;;;;;5093387;28;20427;-83
2023/01/26 10:36:00;;;;;;;55.00;28.73;;;-0.30;99.90;;;;;;5093444;28;20035;-84
2023/01/26 10:38:46;;;;;;;47.83;27.35;;;-0.40;99.90;;;;;;5075345;28;20020;-83
2023/01/26 10:41:18;;;;;;;62.25;40.85;;;-0.30;99.90;;;;;;5093222;28;20024;-84
2023/01/26 10:43:59;;;;;;;55.00;30.38;;;-0.30;99.90;;;;;;5093358;28;20086;-84
2023/01/26 10:46:34;;;;;;;41.97;25.10;;;-0.20;99.90;;;;;;5075257;28;20016;-84
2023/01/26 10:49:13;;;;;;;41.42;23.77;;;-0.20;99.90;;;;;;5093459;28;20028;-83
2023/01/26 10:51:40;;;;;;;43.40;25.05;;;-0.20;99.90;;;;;;5075250;28;20118;-84
2023/01/26 10:54:23;;;;;;;45.08;25.25;;;-0.20;99.90;;;;;;5075142;28;20027;-84
2023/01/26 10:56:51;;;;;;;51.20;26.88;;;-0.20;99.90;;;;;;5093153;28;20020;-84
2023/01/26 10:59:48;;;;;;;46.33;25.00;;;-0.20;99.90;;;;;;5075032;28;20032;-84
2023/01/26 11:02:14;;;;;;;44.38;24.00;;;-0.30;99.90;;;;;;5089170;28;20127;-83
2023/01/26 11:04:40;;;;;;;47.80;26.67;;;-0.30;99.90;;;;;;5091898;28;20501;-84
2023/01/26 11:07:25;;;;;;;50.50;26.50;;;-0.30;99.90;;;;;;5093933;28;20044;-84
2023/01/26 11:09:52;;;;;;;41.58;22.33;;;-0.20;99.90;;;;;;5078858;28;20022;-84
2023/01/26 11:12:19;;;;;;;46.63;24.80;;;-0.20;99.90;;;;;;5096983;28;20076;-83
2023/01/26 11:15:02;;;;;;;43.80;23.00;;;-0.20;99.90;;;;;;5078571;28;20032;-83
2023/01/26 11:17:46;;;;;;;42.90;20.83;;;-0.20;99.90;;;;;;5096851;28;20141;-83
2023/01/26 11:20:39;;;;;;;57.00;28.25;;;-0.20;99.90;;;;;;5075384;28;20048;-83
2023/01/26 11:23:10;;;;;;;43.88;22.05;;;-0.20;99.90;;;;;;5075273;28;20043;-84
2023/01/26 11:25:58;;;;;;;53.65;26.73;;;-0.30;99.90;;;;;;5076366;28;20032;-83
2023/01/26 11:28:44;;;;;;;49.78;23.88;;;-0.20;99.90;;;;;;5074741;28;20028;-84
2023/01/26 11:31:15;;;;;;;52.67;31.58;;;-0.20;99.90;;;;;;5074974;28;20078;-83
2023/01/26 11:34:23;;;;;;;218.32;92.13;;;-0.10;99.90;;;;;;5074905;28;20121;-83
2023/01/26 11:36:59;;;;;;;436.13;160.15;;;-0.10;99.90;;;;;;5075066;28;20107;-84
2023/01/26 11:39:37;;;;;;;87.65;40.28;;;-0.10;99.90;;;;;;5076211;28;20025;-84
2023/01/26 11:42:14;;;;;;;42.95;20.15;;;-0.10;99.90;;;;;;5074738;28;20035;-83
2023/01/26 11:45:04;;;;;;;39.70;19.60;;;-0.30;99.90;;;;;;5076104;28;20025;-84
2023/01/26 11:48:00;;;;;;;36.55;19.00;;;-0.30;99.90;;;;;;5075874;28;20032;-84
2023/01/26 11:50:53;;;;;;;45.47;19.50;;;-0.30;99.90;;;;;;5074732;28;20020;-84
2023/01/26 11:53:27;;;;;;;37.47;20.30;;;-0.30;99.90;;;;;;5076060;28;20036;-83
2023/01/26 11:55:57;;;;;;;190.30;64.00;;;-0.40;99.90;;;;;;5074572;28;20433;-84
2023/01/26 11:58:52;;;;;;;277.02;92.00;;;-0.30;99.90;;;;;;5074463;28;20035;-83
2023/01/26 12:01:27;;;;;;;143.38;53.47;;;-0.30;99.90;;;;;;5070747;28;20037;-84
2023/01/26 12:03:54;;;;;;;43.13;23.30;;;-0.20;99.90;;;;;;5074509;28;20119;-84
2023/01/26 12:06:36;;;;;;;87.00;34.95;;;-0.30;99.90;;;;;;5074472;28;20427;-83
2023/01/26 12:09:21;;;;;;;53.85;22.85;;;-0.30;99.90;;;;;;5074229;28;20020;-84
2023/01/26 12:11:59;;;;;;;116.53;42.75;;;-0.20;99.90;;;;;;5075652;28;20059;-83
2023/01/26 12:14:39;;;;;;;483.08;177.10;;;-0.20;99.90;;;;;;5074258;28;20017;-83
2023/01/26 12:17:23;;;;;;;208.35;73.05;;;-0.20;99.90;;;;;;5074175;28;20081;-84
2023/01/26 12:20:11;;;;;;;468.45;175.15;;;-0.10;99.90;;;;;;5077156;28;20043;-84
2023/01/26 12:22:43;;;;;;;91.68;37.20;;;-0.10;99.90;;;;;;5077154;28;20445;-84
2023/01/26 12:25:34;;;;;;;156.47;59.07;;;-0.10;99.90;;;;;;5094334;28;20027;-84
2023/01/26 12:28:37;;;;;;;131.55;51.85;;;-0.10;99.90;;;;;;5095531;28;20320;-84
2023/01/26 12:31:27;;;;;;;77.72;33.00;;;0.00;99.90;;;;;;5065176;28;20081;-83
2023/01/26 12:33:55;;;;;;;63.38;28.48;;;0.10;99.90;;;;;;5095349;28;20110;-83
2023/01/26 12:36:48;;;;;;;183.70;71.10;;;0.10;99.90;;;;;;5095637;28;20028;-83
2023/01/26 12:39:17;;;;;;;;;;;0.10;99.90;;;;;;5095738;28;20484;-84
2023/01/26 12:42:21;;;;;;;56.63;25.52;;;0.10;99.90;;;;;;5077100;28;19972;-83
2023/01/26 12:44:58;;;;;;;46.47;21.85;;;0.20;99.90;;;;;;5077117;28;20433;-84
2023/01/26 12:47:41;;;;;;;105.63;45.28;;;0.20;99.90;;;;;;5077034;28;20027;-83
2023/01/26 12:50:28;;;;;;;63.83;27.63;;;0.10;99.90;;;;;;5077037;28;20024;-83
2023/01/26 12:52:53;;;;;;;129.05;56.80;;;0.20;99.90;;;;;;5076889;28;20028;-84
2023/01/26 12:55:25;;;;;;;173.98;72.10;;;0.20;99.90;;;;;;5076819;28;20119;-84
2023/01/26 12:58:01;;;;;;;98.80;43.22;;;0.20;99.90;;;;;;5076315;28;20028;-83
2023/01/26 13:00:32;;;;;;;185.05;76.88;;;0.20;99.90;;;;;;5076819;28;20797;-84
2023/01/26 13:03:23;;;;;;;55.50;26.33;;;0.20;99.90;;;;;;5094802;28;20093;-83
2023/01/26 13:06:08;;;;;;;62.40;29.92;;;0.20;99.90;;;;;;5094832;28;20035;-84
2023/01/26 13:08:34;;;;;;;73.07;29.33;;;0.20;99.90;;;;;;5076560;28;20022;-84
2023/01/26 13:11:07;;;;;;;65.70;27.13;;;0.20;99.90;;;;;;5076439;28;20107;-84
2023/01/26 13:13:54;;;;;;;73.43;33.63;;;0.20;99.90;;;;;;5076518;28;20018;-84
2023/01/26 13:16:20;;;;;;;42.92;21.90;;;0.20;99.90;;;;;;5076201;28;20020;-84
2023/01/26 13:18:58;;;;;;;125.90;56.55;;;0.20;99.90;;;;;;5094274;28;20059;-84
2023/01/26 13:21:27;;;;;;;55.42;25.75;;;0.10;99.90;;;;;;5076303;28;20423;-83
2023/01/26 13:23:53;;;;;;;45.10;21.55;;;0.10;99.90;;;;;;5092966;28;20103;-83
2023/01/26 13:26:31;;;;;;;63.22;28.63;;;0.10;99.90;;;;;;5076203;28;20047;-84
2023/01/26 13:29:24;;;;;;;49.22;26.63;;;0.10;99.90;;;;;;5076011;28;20115;-83